sensor_id;sensor_type;location;lat;lon;timestamp;pressure;altitude;pressure_sealevel;temperature;humidity
81961;BME280;71462;50.650;6.888;2023-11-21T00:00:39;99169.50;;;9.64;65.96
81961;BME280;71462;50.650;6.888;2023-11-21T00:03:07;99175.13;;;9.63;66.24
81961;BME280;71462;50.650;6.888;2023-11-21T00:05:36;99167.09;;;9.49;66.85
81961;BME280;71462;50.650;6.888;2023-11-21T00:08:05;99171.84;;;9.52;66.74
81961;BME280;71462;50.650;6.888;2023-11-21T00:10:34;99178.19;;;9.56;65.76
81961;BME280;71462;50.650;6.888;2023-11-21T00:13:02;99174.59;;;9.47;66.67
81961;BME280;71462;50.650;6.888;2023-11-21T00:15:29;99174.50;;;9.52;66.79
81961;BME280;71462;50.650;6.888;2023-11-21T00:18:00;99177.72;;;9.35;67.12
81961;BME280;71462;50.650;6.888;2023-11-21T00:20:27;99176.19;;;9.48;67.22
81961;BME280;71462;50.650;6.888;2023-11-21T00:22:55;99173.72;;;9.52;67.01
81961;BME280;71462;50.650;6.888;2023-11-21T00:25:23;99183.31;;;9.53;67.00
81961;BME280;71462;50.650;6.888;2023-11-21T00:27:51;99183.66;;;9.65;66.50
81961;BME280;71462;50.650;6.888;2023-11-21T00:30:19;99186.78;;;9.34;67.38
81961;BME280;71462;50.650;6.888;2023-11-21T00:32:48;99190.09;;;9.45;67.37
81961;BME280;71462;50.650;6.888;2023-11-21T00:35:17;99188.47;;;9.63;66.40
81961;BME280;71462;50.650;6.888;2023-11-21T00:37:45;99193.47;;;9.51;67.23
81961;BME280;71462;50.650;6.888;2023-11-21T00:40:16;99192.91;;;9.54;66.83
81961;BME280;71462;50.650;6.888;2023-11-21T00:42:45;99201.91;;;9.58;66.98
81961;BME280;71462;50.650;6.888;2023-11-21T00:45:13;99196.94;;;9.51;67.01
81961;BME280;71462;50.650;6.888;2023-11-21T00:47:41;99200.19;;;9.48;67.33
81961;BME280;71462;50.650;6.888;2023-11-21T00:50:10;99206.53;;;9.52;67.28
81961;BME280;71462;50.650;6.888;2023-11-21T00:52:39;99204.88;;;9.37;67.71
81961;BME280;71462;50.650;6.888;2023-11-21T00:55:07;99204.81;;;9.43;67.77
81961;BME280;71462;50.650;6.888;2023-11-21T00:57:35;99205.09;;;9.41;68.02
81961;BME280;71462;50.650;6.888;2023-11-21T01:00:13;99207.81;;;9.55;67.04
81961;BME280;71462;50.650;6.888;2023-11-21T01:02:43;99217.72;;;9.35;67.27
81961;BME280;71462;50.650;6.888;2023-11-21T01:05:11;99208.47;;;9.47;67.57
81961;BME280;71462;50.650;6.888;2023-11-21T01:07:40;99217.91;;;9.58;67.31
81961;BME280;71462;50.650;6.888;2023-11-21T01:10:15;99216.19;;;9.48;67.58
81961;BME280;71462;50.650;6.888;2023-11-21T01:12:44;99216.19;;;9.48;68.05
81961;BME280;71462;50.650;6.888;2023-11-21T01:15:11;99221.25;;;9.50;67.61
81961;BME280;71462;50.650;6.888;2023-11-21T01:17:39;99230.91;;;9.64;67.20
81961;BME280;71462;50.650;6.888;2023-11-21T01:20:08;99228.69;;;9.72;67.17
81961;BME280;71462;50.650;6.888;2023-11-21T01:22:41;99237.31;;;9.82;66.83
81961;BME280;71462;50.650;6.888;2023-11-21T01:25:09;99236.31;;;9.78;66.65
81961;BME280;71462;50.650;6.888;2023-11-21T01:27:37;99233.72;;;9.73;66.45
81961;BME280;71462;50.650;6.888;2023-11-21T01:30:06;99235.53;;;9.78;66.73
81961;BME280;71462;50.650;6.888;2023-11-21T01:32:35;99235.81;;;9.76;66.70
81961;BME280;71462;50.650;6.888;2023-11-21T01:35:04;99239.06;;;9.54;67.63
81961;BME280;71462;50.650;6.888;2023-11-21T01:37:32;99237.75;;;9.52;67.85
81961;BME280;71462;50.650;6.888;2023-11-21T01:40:02;99244.69;;;9.34;68.45
81961;BME280;71462;50.650;6.888;2023-11-21T01:42:34;99242.91;;;9.00;69.41
81961;BME280;71462;50.650;6.888;2023-11-21T01:45:02;99244.34;;;8.69;70.78
81961;BME280;71462;50.650;6.888;2023-11-21T01:47:32;99243.94;;;8.81;70.86
81961;BME280;71462;50.650;6.888;2023-11-21T01:50:01;99246.44;;;8.72;72.14
81961;BME280;71462;50.650;6.888;2023-11-21T01:52:30;99250.13;;;9.00;71.08
81961;BME280;71462;50.650;6.888;2023-11-21T01:54:59;99248.66;;;9.13;69.44
81961;BME280;71462;50.650;6.888;2023-11-21T01:57:29;99245.72;;;9.33;69.20
81961;BME280;71462;50.650;6.888;2023-11-21T01:59:58;99243.81;;;9.38;68.40
81961;BME280;71462;50.650;6.888;2023-11-21T02:02:30;99241.00;;;9.06;69.58
81961;BME280;71462;50.650;6.888;2023-11-21T02:04:58;99243.00;;;9.19;69.01
81961;BME280;71462;50.650;6.888;2023-11-21T02:07:26;99249.25;;;9.28;68.91
81961;BME280;71462;50.650;6.888;2023-11-21T02:09:55;99258.22;;;9.14;69.70
81961;BME280;71462;50.650;6.888;2023-11-21T02:12:25;99255.56;;;9.37;68.36
81961;BME280;71462;50.650;6.888;2023-11-21T02:14:54;99260.41;;;9.35;68.33
81961;BME280;71462;50.650;6.888;2023-11-21T02:17:22;99268.75;;;9.48;67.54
81961;BME280;71462;50.650;6.888;2023-11-21T02:19:50;99267.28;;;9.18;69.12
81961;BME280;71462;50.650;6.888;2023-11-21T02:22:19;99276.59;;;8.91;70.10
81961;BME280;71462;50.650;6.888;2023-11-21T02:24:48;99272.66;;;9.13;69.34
81961;BME280;71462;50.650;6.888;2023-11-21T02:27:16;99276.22;;;8.79;70.17
81961;BME280;71462;50.650;6.888;2023-11-21T02:29:48;99282.75;;;8.63;71.32
81961;BME280;71462;50.650;6.888;2023-11-21T02:32:16;99282.34;;;8.80;70.60
81961;BME280;71462;50.650;6.888;2023-11-21T02:34:45;99286.19;;;8.68;71.10
81961;BME280;71462;50.650;6.888;2023-11-21T02:37:13;99292.09;;;8.60;71.79
81961;BME280;71462;50.650;6.888;2023-11-21T02:39:42;99291.16;;;9.04;69.51
81961;BME280;71462;50.650;6.888;2023-11-21T02:42:12;99300.91;;;8.27;72.58
81961;BME280;71462;50.650;6.888;2023-11-21T02:44:41;99300.59;;;8.91;70.44
81961;BME280;71462;50.650;6.888;2023-11-21T02:47:09;99297.19;;;8.86;69.88
81961;BME280;71462;50.650;6.888;2023-11-21T02:49:37;99292.22;;;8.79;70.39
81961;BME280;71462;50.650;6.888;2023-11-21T02:52:06;99298.72;;;8.39;72.03
81961;BME280;71462;50.650;6.888;2023-11-21T02:54:35;99306.28;;;8.56;71.14
81961;BME280;71462;50.650;6.888;2023-11-21T02:57:03;99298.38;;;8.98;69.65
81961;BME280;71462;50.650;6.888;2023-11-21T02:59:34;99299.66;;;9.06;69.38
81961;BME280;71462;50.650;6.888;2023-11-21T03:02:01;99299.38;;;9.07;69.07
81961;BME280;71462;50.650;6.888;2023-11-21T03:04:29;99302.97;;;9.22;68.52
81961;BME280;71462;50.650;6.888;2023-11-21T03:06:59;99297.06;;;9.25;68.39
81961;BME280;71462;50.650;6.888;2023-11-21T03:09:26;99299.16;;;9.28;68.24
81961;BME280;71462;50.650;6.888;2023-11-21T03:11:54;99296.00;;;8.97;68.96
81961;BME280;71462;50.650;6.888;2023-11-21T03:14:22;99305.66;;;8.64;70.26
81961;BME280;71462;50.650;6.888;2023-11-21T03:16:52;99304.34;;;8.90;69.29
81961;BME280;71462;50.650;6.888;2023-11-21T03:19:20;99308.16;;;8.55;69.68
81961;BME280;71462;50.650;6.888;2023-11-21T03:21:48;99318.16;;;8.68;70.68
81961;BME280;71462;50.650;6.888;2023-11-21T03:24:15;99317.84;;;8.99;69.25
81961;BME280;71462;50.650;6.888;2023-11-21T03:26:46;99322.88;;;9.00;68.34
81961;BME280;71462;50.650;6.888;2023-11-21T03:29:14;99320.66;;;9.13;68.50
81961;BME280;71462;50.650;6.888;2023-11-21T03:31:44;99330.16;;;8.95;68.47
81961;BME280;71462;50.650;6.888;2023-11-21T03:34:19;99334.09;;;9.02;68.81
81961;BME280;71462;50.650;6.888;2023-11-21T03:36:50;99341.00;;;9.03;67.90
81961;BME280;71462;50.650;6.888;2023-11-21T03:39:24;99339.44;;;9.26;67.33
81961;BME280;71462;50.650;6.888;2023-11-21T03:41:52;99343.81;;;9.41;66.58
81961;BME280;71462;50.650;6.888;2023-11-21T03:44:19;99350.91;;;8.98;68.54
81961;BME280;71462;50.650;6.888;2023-11-21T03:46:48;99347.31;;;9.13;68.11
81961;BME280;71462;50.650;6.888;2023-11-21T03:49:17;99347.28;;;9.18;67.46
81961;BME280;71462;50.650;6.888;2023-11-21T03:51:45;99354.19;;;8.90;68.07
81961;BME280;71462;50.650;6.888;2023-11-21T03:54:12;99353.41;;;8.89;68.69
81961;BME280;71462;50.650;6.888;2023-11-21T03:56:41;99346.16;;;8.95;68.91
81961;BME280;71462;50.650;6.888;2023-11-21T03:59:08;99350.78;;;9.13;67.70
81961;BME280;71462;50.650;6.888;2023-11-21T04:01:36;99356.16;;;9.08;67.46
81961;BME280;71462;50.650;6.888;2023-11-21T04:04:04;99363.50;;;9.21;67.50
81961;BME280;71462;50.650;6.888;2023-11-21T04:06:33;99369.41;;;9.18;67.18
81961;BME280;71462;50.650;6.888;2023-11-21T04:09:02;99371.81;;;9.15;67.29
81961;BME280;71462;50.650;6.888;2023-11-21T04:11:30;99371.53;;;9.16;66.90
81961;BME280;71462;50.650;6.888;2023-11-21T04:13:58;99374.19;;;9.16;66.94
81961;BME280;71462;50.650;6.888;2023-11-21T04:16:26;99383.38;;;9.05;66.75
81961;BME280;71462;50.650;6.888;2023-11-21T04:18:54;99387.88;;;9.09;67.26
81961;BME280;71462;50.650;6.888;2023-11-21T04:21:22;99389.31;;;9.26;66.72
81961;BME280;71462;50.650;6.888;2023-11-21T04:23:52;99382.34;;;9.30;66.39
81961;BME280;71462;50.650;6.888;2023-11-21T04:26:19;99390.41;;;9.25;66.54
81961;BME280;71462;50.650;6.888;2023-11-21T04:28:47;99402.22;;;9.19;66.50
81961;BME280;71462;50.650;6.888;2023-11-21T04:31:14;99401.16;;;9.15;67.27
81961;BME280;71462;50.650;6.888;2023-11-21T04:33:42;99405.25;;;9.36;66.12
81961;BME280;71462;50.650;6.888;2023-11-21T04:36:11;99402.00;;;9.39;65.99
81961;BME280;71462;50.650;6.888;2023-11-21T04:38:38;99402.88;;;9.29;65.66
81961;BME280;71462;50.650;6.888;2023-11-21T04:41:11;99400.41;;;9.09;66.16
81961;BME280;71462;50.650;6.888;2023-11-21T04:43:39;99401.44;;;9.13;66.39
81961;BME280;71462;50.650;6.888;2023-11-21T04:46:08;99397.47;;;9.11;66.32
81961;BME280;71462;50.650;6.888;2023-11-21T04:48:36;99411.44;;;8.97;66.84
81961;BME280;71462;50.650;6.888;2023-11-21T04:51:04;99405.94;;;9.18;66.63
81961;BME280;71462;50.650;6.888;2023-11-21T04:53:33;99409.31;;;9.28;65.86
81961;BME280;71462;50.650;6.888;2023-11-21T04:56:01;99405.47;;;9.39;65.52
81961;BME280;71462;50.650;6.888;2023-11-21T04:58:31;99411.81;;;9.44;65.27
81961;BME280;71462;50.650;6.888;2023-11-21T05:00:59;99416.72;;;9.36;65.49
81961;BME280;71462;50.650;6.888;2023-11-21T05:03:30;99407.84;;;9.41;65.07
81961;BME280;71462;50.650;6.888;2023-11-21T05:05:59;99408.06;;;9.45;64.82
81961;BME280;71462;50.650;6.888;2023-11-21T05:08:28;99407.28;;;9.44;65.17
81961;BME280;71462;50.650;6.888;2023-11-21T05:10:56;99409.88;;;9.49;65.30
81961;BME280;71462;50.650;6.888;2023-11-21T05:13:23;99418.13;;;9.53;64.96
81961;BME280;71462;50.650;6.888;2023-11-21T05:15:55;99411.19;;;9.52;64.93
81961;BME280;71462;50.650;6.888;2023-11-21T05:18:24;99408.00;;;9.50;65.24
81961;BME280;71462;50.650;6.888;2023-11-21T05:20:54;99420.22;;;8.98;67.08
81961;BME280;71462;50.650;6.888;2023-11-21T05:23:21;99426.97;;;8.90;68.09
81961;BME280;71462;50.650;6.888;2023-11-21T05:25:49;99428.09;;;8.84;67.45
81961;BME280;71462;50.650;6.888;2023-11-21T05:28:17;99430.44;;;8.91;67.86
81961;BME280;71462;50.650;6.888;2023-11-21T05:30:45;99433.56;;;8.98;67.89
81961;BME280;71462;50.650;6.888;2023-11-21T05:33:15;99440.19;;;9.00;67.99
81961;BME280;71462;50.650;6.888;2023-11-21T05:35:43;99440.47;;;8.99;67.28
81961;BME280;71462;50.650;6.888;2023-11-21T05:38:11;99447.16;;;9.01;67.24
81961;BME280;71462;50.650;6.888;2023-11-21T05:40:39;99447.91;;;8.73;67.97
81961;BME280;71462;50.650;6.888;2023-11-21T05:43:07;99457.13;;;8.86;68.47
81961;BME280;71462;50.650;6.888;2023-11-21T05:45:34;99454.06;;;9.02;67.85
81961;BME280;71462;50.650;6.888;2023-11-21T05:48:02;99451.53;;;9.21;66.91
81961;BME280;71462;50.650;6.888;2023-11-21T05:50:31;99449.72;;;9.12;66.84
81961;BME280;71462;50.650;6.888;2023-11-21T05:52:59;99457.41;;;9.18;67.01
81961;BME280;71462;50.650;6.888;2023-11-21T05:55:27;99455.16;;;9.30;66.22
81961;BME280;71462;50.650;6.888;2023-11-21T05:57:55;99470.59;;;9.04;66.38
81961;BME280;71462;50.650;6.888;2023-11-21T06:00:25;99469.00;;;8.98;67.16
81961;BME280;71462;50.650;6.888;2023-11-21T06:02:56;99473.53;;;9.03;67.22
81961;BME280;71462;50.650;6.888;2023-11-21T06:05:26;99481.25;;;8.99;67.18
81961;BME280;71462;50.650;6.888;2023-11-21T06:07:56;99479.94;;;9.02;66.77
81961;BME280;71462;50.650;6.888;2023-11-21T06:10:28;99477.69;;;9.14;66.85
81961;BME280;71462;50.650;6.888;2023-11-21T06:12:57;99480.53;;;9.28;66.32
81961;BME280;71462;50.650;6.888;2023-11-21T06:15:30;99490.31;;;9.37;65.69
81961;BME280;71462;50.650;6.888;2023-11-21T06:18:15;99489.72;;;9.46;65.46
81961;BME280;71462;50.650;6.888;2023-11-21T06:20:51;99493.13;;;9.51;65.33
81961;BME280;71462;50.650;6.888;2023-11-21T06:23:21;99500.50;;;9.59;64.94
81961;BME280;71462;50.650;6.888;2023-11-21T06:25:48;99499.44;;;9.60;64.91
81961;BME280;71462;50.650;6.888;2023-11-21T06:28:16;99505.78;;;9.64;64.53
81961;BME280;71462;50.650;6.888;2023-11-21T06:30:45;99506.88;;;9.63;64.76
81961;BME280;71462;50.650;6.888;2023-11-21T06:33:12;99512.72;;;9.65;64.63
81961;BME280;71462;50.650;6.888;2023-11-21T06:35:40;99517.88;;;9.57;64.39
81961;BME280;71462;50.650;6.888;2023-11-21T06:38:15;99519.97;;;9.36;65.50
81961;BME280;71462;50.650;6.888;2023-11-21T06:40:48;99519.69;;;9.37;65.86
81961;BME280;71462;50.650;6.888;2023-11-21T06:43:16;99524.69;;;9.44;65.57
81961;BME280;71462;50.650;6.888;2023-11-21T06:45:48;99528.47;;;9.38;65.58
81961;BME280;71462;50.650;6.888;2023-11-21T06:48:30;99530.00;;;9.44;65.67
81961;BME280;71462;50.650;6.888;2023-11-21T06:50:58;99529.34;;;9.57;64.90
81961;BME280;71462;50.650;6.888;2023-11-21T06:53:37;99537.28;;;9.67;64.71
81961;BME280;71462;50.650;6.888;2023-11-21T06:56:17;99540.75;;;9.68;64.50
81961;BME280;71462;50.650;6.888;2023-11-21T06:59:11;99550.91;;;9.66;64.79
81961;BME280;71462;50.650;6.888;2023-11-21T07:01:39;99548.31;;;9.56;64.84
81961;BME280;71462;50.650;6.888;2023-11-21T07:04:38;99553.22;;;9.44;64.99
81961;BME280;71462;50.650;6.888;2023-11-21T07:07:06;99558.75;;;9.52;65.45
81961;BME280;71462;50.650;6.888;2023-11-21T07:09:40;99563.72;;;9.64;64.81
81961;BME280;71462;50.650;6.888;2023-11-21T07:12:32;99569.31;;;9.62;64.43
81961;BME280;71462;50.650;6.888;2023-11-21T07:15:02;99579.72;;;9.64;65.01
81961;BME280;71462;50.650;6.888;2023-11-21T07:17:32;99575.72;;;9.66;65.00
81961;BME280;71462;50.650;6.888;2023-11-21T07:20:07;99576.47;;;9.72;65.13
81961;BME280;71462;50.650;6.888;2023-11-21T07:22:38;99581.19;;;9.80;64.60
81961;BME280;71462;50.650;6.888;2023-11-21T07:25:08;99575.66;;;9.72;64.69
81961;BME280;71462;50.650;6.888;2023-11-21T07:27:39;99587.19;;;9.67;64.95
81961;BME280;71462;50.650;6.888;2023-11-21T07:30:15;99586.13;;;9.68;64.78
81961;BME280;71462;50.650;6.888;2023-11-21T07:32:44;99598.09;;;9.70;65.04
81961;BME280;71462;50.650;6.888;2023-11-21T07:35:14;99609.38;;;9.62;64.69
81961;BME280;71462;50.650;6.888;2023-11-21T07:38:06;99606.69;;;9.67;64.82
81961;BME280;71462;50.650;6.888;2023-11-21T07:41:08;99607.81;;;9.56;65.64
81961;BME280;71462;50.650;6.888;2023-11-21T07:44:09;99613.28;;;8.92;67.11
81961;BME280;71462;50.650;6.888;2023-11-21T07:46:49;99618.31;;;9.03;68.29
81961;BME280;71462;50.650;6.888;2023-11-21T07:49:17;99610.25;;;9.14;67.42
81961;BME280;71462;50.650;6.888;2023-11-21T07:51:47;99618.66;;;9.36;67.14
81961;BME280;71462;50.650;6.888;2023-11-21T07:54:17;99614.22;;;9.55;66.35
81961;BME280;71462;50.650;6.888;2023-11-21T07:56:45;99627.41;;;9.42;66.43
81961;BME280;71462;50.650;6.888;2023-11-21T07:59:15;99631.88;;;9.51;66.33
81961;BME280;71462;50.650;6.888;2023-11-21T08:01:45;99629.34;;;9.70;66.01
81961;BME280;71462;50.650;6.888;2023-11-21T08:04:17;99631.34;;;9.83;65.08
81961;BME280;71462;50.650;6.888;2023-11-21T08:06:45;99631.91;;;9.80;65.01
81961;BME280;71462;50.650;6.888;2023-11-21T08:09:13;99643.56;;;9.89;65.02
81961;BME280;71462;50.650;6.888;2023-11-21T08:11:42;99644.88;;;9.92;64.55
81961;BME280;71462;50.650;6.888;2023-11-21T08:14:12;99648.00;;;10.04;64.38
81961;BME280;71462;50.650;6.888;2023-11-21T08:16:44;99647.59;;;10.16;63.03
81961;BME280;71462;50.650;6.888;2023-11-21T08:19:21;99651.06;;;10.16;63.55
81961;BME280;71462;50.650;6.888;2023-11-21T08:21:50;99661.19;;;10.19;62.76
81961;BME280;71462;50.650;6.888;2023-11-21T08:24:23;99663.28;;;10.22;62.87
81961;BME280;71462;50.650;6.888;2023-11-21T08:26:52;99669.44;;;10.23;63.24
81961;BME280;71462;50.650;6.888;2023-11-21T08:29:20;99672.66;;;10.20;63.43
81961;BME280;71462;50.650;6.888;2023-11-21T08:31:57;99675.56;;;10.23;63.60
81961;BME280;71462;50.650;6.888;2023-11-21T08:34:26;99676.88;;;10.26;63.30
81961;BME280;71462;50.650;6.888;2023-11-21T08:36:55;99685.97;;;10.25;63.63
81961;BME280;71462;50.650;6.888;2023-11-21T08:39:23;99689.50;;;10.20;63.73
81961;BME280;71462;50.650;6.888;2023-11-21T08:41:58;99685.34;;;10.09;63.90
81961;BME280;71462;50.650;6.888;2023-11-21T08:44:27;99687.78;;;10.06;64.70
81961;BME280;71462;50.650;6.888;2023-11-21T08:46:59;99682.44;;;10.06;64.82
81961;BME280;71462;50.650;6.888;2023-11-21T08:49:27;99687.75;;;9.77;65.42
81961;BME280;71462;50.650;6.888;2023-11-21T08:52:19;99684.97;;;9.53;66.27
81961;BME280;71462;50.650;6.888;2023-11-21T08:54:58;99684.97;;;8.98;67.92
81961;BME280;71462;50.650;6.888;2023-11-21T08:57:29;99686.91;;;8.83;70.08
81961;BME280;71462;50.650;6.888;2023-11-21T08:59:57;99695.59;;;9.14;68.28
81961;BME280;71462;50.650;6.888;2023-11-21T09:02:27;99694.31;;;8.96;68.71
81961;BME280;71462;50.650;6.888;2023-11-21T09:04:56;99695.03;;;9.17;69.31
81961;BME280;71462;50.650;6.888;2023-11-21T09:07:25;99691.78;;;9.30;68.31
81961;BME280;71462;50.650;6.888;2023-11-21T09:09:53;99699.38;;;9.52;67.53
81961;BME280;71462;50.650;6.888;2023-11-21T09:12:21;99712.31;;;9.74;66.82
81961;BME280;71462;50.650;6.888;2023-11-21T09:14:51;99715.38;;;9.91;66.10
81961;BME280;71462;50.650;6.888;2023-11-21T09:17:19;99723.56;;;9.65;66.81
81961;BME280;71462;50.650;6.888;2023-11-21T09:19:48;99719.38;;;9.54;67.95
81961;BME280;71462;50.650;6.888;2023-11-21T09:22:18;99719.06;;;9.61;67.40
81961;BME280;71462;50.650;6.888;2023-11-21T09:24:46;99719.69;;;9.48;66.84
81961;BME280;71462;50.650;6.888;2023-11-21T09:27:15;99719.59;;;9.68;67.63
81961;BME280;71462;50.650;6.888;2023-11-21T09:29:43;99729.06;;;9.84;66.17
81961;BME280;71462;50.650;6.888;2023-11-21T09:32:12;99727.06;;;9.61;66.77
81961;BME280;71462;50.650;6.888;2023-11-21T09:34:41;99739.19;;;9.48;67.83
81961;BME280;71462;50.650;6.888;2023-11-21T09:37:10;99746.19;;;9.29;67.59
81961;BME280;71462;50.650;6.888;2023-11-21T09:39:41;99743.47;;;9.44;68.19
81961;BME280;71462;50.650;6.888;2023-11-21T09:42:12;99742.88;;;9.52;67.30
81961;BME280;71462;50.650;6.888;2023-11-21T09:44:46;99751.09;;;9.66;67.15
81961;BME280;71462;50.650;6.888;2023-11-21T09:47:17;99750.09;;;9.52;67.47
81961;BME280;71462;50.650;6.888;2023-11-21T09:49:47;99752.94;;;9.70;67.28
81961;BME280;71462;50.650;6.888;2023-11-21T09:52:36;99753.03;;;9.50;67.68
81961;BME280;71462;50.650;6.888;2023-11-21T09:55:08;99746.66;;;9.46;68.36
81961;BME280;71462;50.650;6.888;2023-11-21T09:57:45;99749.75;;;9.63;68.61
81961;BME280;71462;50.650;6.888;2023-11-21T10:00:23;99752.53;;;9.43;68.89
81961;BME280;71462;50.650;6.888;2023-11-21T10:03:03;99749.38;;;9.36;68.97
81961;BME280;71462;50.650;6.888;2023-11-21T10:05:50;99757.09;;;9.43;69.90
81961;BME280;71462;50.650;6.888;2023-11-21T10:08:42;99758.53;;;9.09;69.26
81961;BME280;71462;50.650;6.888;2023-11-21T10:11:22;99766.09;;;9.52;68.33
81961;BME280;71462;50.650;6.888;2023-11-21T10:13:54;99753.41;;;9.28;69.63
81961;BME280;71462;50.650;6.888;2023-11-21T10:16:25;99756.50;;;9.90;68.21
81961;BME280;71462;50.650;6.888;2023-11-21T10:18:55;99756.78;;;9.49;69.63
81961;BME280;71462;50.650;6.888;2023-11-21T10:21:37;99759.16;;;9.51;69.29
81961;BME280;71462;50.650;6.888;2023-11-21T10:24:10;99767.47;;;9.44;69.79
81961;BME280;71462;50.650;6.888;2023-11-21T10:26:39;99765.03;;;9.92;67.71
81961;BME280;71462;50.650;6.888;2023-11-21T10:29:18;99767.47;;;9.88;67.98
81961;BME280;71462;50.650;6.888;2023-11-21T10:31:49;99775.94;;;10.35;66.34
81961;BME280;71462;50.650;6.888;2023-11-21T10:34:18;99773.53;;;10.67;64.48
81961;BME280;71462;50.650;6.888;2023-11-21T10:36:46;99775.81;;;10.50;65.25
81961;BME280;71462;50.650;6.888;2023-11-21T10:39:18;99765.88;;;10.55;64.42
81961;BME280;71462;50.650;6.888;2023-11-21T10:41:57;99768.59;;;10.50;65.24
81961;BME280;71462;50.650;6.888;2023-11-21T10:44:26;99771.84;;;10.76;64.46
81961;BME280;71462;50.650;6.888;2023-11-21T10:46:55;99785.09;;;10.86;63.89
81961;BME280;71462;50.650;6.888;2023-11-21T10:49:27;99779.16;;;10.89;62.69
81961;BME280;71462;50.650;6.888;2023-11-21T10:51:56;99775.44;;;10.32;64.64
81961;BME280;71462;50.650;6.888;2023-11-21T10:54:26;99771.16;;;10.31;64.74
81961;BME280;71462;50.650;6.888;2023-11-21T10:57:22;99763.81;;;10.13;65.46
81961;BME280;71462;50.650;6.888;2023-11-21T11:00:20;99779.47;;;9.91;66.55
81961;BME280;71462;50.650;6.888;2023-11-21T11:03:02;99782.44;;;10.23;65.52
81961;BME280;71462;50.650;6.888;2023-11-21T11:05:43;99781.06;;;9.92;66.95
81961;BME280;71462;50.650;6.888;2023-11-21T11:08:24;99783.97;;;10.00;66.41
81961;BME280;71462;50.650;6.888;2023-11-21T11:10:55;99791.69;;;10.02;67.12
81961;BME280;71462;50.650;6.888;2023-11-21T11:13:27;99784.13;;;10.48;65.88
81961;BME280;71462;50.650;6.888;2023-11-21T11:16:08;99792.53;;;10.31;64.60
81961;BME280;71462;50.650;6.888;2023-11-21T11:18:37;99794.00;;;9.75;66.69
81961;BME280;71462;50.650;6.888;2023-11-21T11:21:16;99789.75;;;10.13;65.91
81961;BME280;71462;50.650;6.888;2023-11-21T11:26:47;99795.28;;;10.55;64.48
81961;BME280;71462;50.650;6.888;2023-11-21T11:29:33;99793.44;;;10.80;63.36
81961;BME280;71462;50.650;6.888;2023-11-21T11:32:55;99795.50;;;10.59;64.27
81961;BME280;71462;50.650;6.888;2023-11-21T11:35:33;99797.09;;;10.65;63.52
81961;BME280;71462;50.650;6.888;2023-11-21T11:38:05;99797.09;;;10.65;63.32
81961;BME280;71462;50.650;6.888;2023-11-21T11:40:41;99793.50;;;10.46;64.34
81961;BME280;71462;50.650;6.888;2023-11-21T11:43:11;99793.56;;;10.70;62.93
81961;BME280;71462;50.650;6.888;2023-11-21T11:45:39;99798.63;;;10.71;62.40
81961;BME280;71462;50.650;6.888;2023-11-21T11:48:11;99804.25;;;10.93;62.46
81961;BME280;71462;50.650;6.888;2023-11-21T11:53:25;99801.78;;;11.02;61.55
81961;BME280;71462;50.650;6.888;2023-11-21T11:59:03;99812.72;;;11.30;60.66
81961;BME280;71462;50.650;6.888;2023-11-21T12:01:36;99808.75;;;11.22;61.06
81961;BME280;71462;50.650;6.888;2023-11-21T12:04:25;99818.97;;;11.20;61.63
81961;BME280;71462;50.650;6.888;2023-11-21T12:07:01;99821.34;;;11.21;61.17
81961;BME280;71462;50.650;6.888;2023-11-21T12:09:36;99821.81;;;11.05;61.67
81961;BME280;71462;50.650;6.888;2023-11-21T12:12:08;99819.69;;;11.25;61.24
81961;BME280;71462;50.650;6.888;2023-11-21T12:14:38;99824.72;;;11.32;60.45
81961;BME280;71462;50.650;6.888;2023-11-21T12:17:06;99823.28;;;11.40;60.93
81961;BME280;71462;50.650;6.888;2023-11-21T12:19:35;99826.03;;;11.35;60.94
81961;BME280;71462;50.650;6.888;2023-11-21T12:22:05;99828.50;;;11.26;61.60
81961;BME280;71462;50.650;6.888;2023-11-21T12:24:34;99827.22;;;11.00;62.32
81961;BME280;71462;50.650;6.888;2023-11-21T12:27:03;99828.63;;;11.16;61.53
81961;BME280;71462;50.650;6.888;2023-11-21T12:29:33;99827.97;;;11.05;61.53
81961;BME280;71462;50.650;6.888;2023-11-21T12:32:08;99829.44;;;11.16;61.73
81961;BME280;71462;50.650;6.888;2023-11-21T12:34:39;99834.56;;;11.37;61.53
81961;BME280;71462;50.650;6.888;2023-11-21T12:37:11;99828.56;;;11.45;60.81
81961;BME280;71462;50.650;6.888;2023-11-21T12:39:39;99830.38;;;11.49;60.57
81961;BME280;71462;50.650;6.888;2023-11-21T12:42:07;99833.47;;;11.38;60.91
81961;BME280;71462;50.650;6.888;2023-11-21T12:44:39;99835.44;;;11.32;61.35
81961;BME280;71462;50.650;6.888;2023-11-21T12:47:15;99837.47;;;11.40;61.34
81961;BME280;71462;50.650;6.888;2023-11-21T12:49:52;99842.81;;;11.40;60.79
81961;BME280;71462;50.650;6.888;2023-11-21T12:52:23;99837.78;;;11.57;60.57
81961;BME280;71462;50.650;6.888;2023-11-21T12:55:13;99837.78;;;11.57;60.22
81961;BME280;71462;50.650;6.888;2023-11-21T12:57:43;99847.16;;;11.36;60.66
81961;BME280;71462;50.650;6.888;2023-11-21T13:00:15;99848.91;;;11.46;60.78
81961;BME280;71462;50.650;6.888;2023-11-21T13:02:56;99845.88;;;11.52;60.35
81961;BME280;71462;50.650;6.888;2023-11-21T13:05:30;99851.00;;;11.49;59.89
81961;BME280;71462;50.650;6.888;2023-11-21T13:08:15;99846.53;;;10.91;61.75
81961;BME280;71462;50.650;6.888;2023-11-21T13:10:49;99848.34;;;11.25;61.32
81961;BME280;71462;50.650;6.888;2023-11-21T13:13:17;99853.50;;;11.16;62.29
81961;BME280;71462;50.650;6.888;2023-11-21T13:15:51;99858.69;;;11.08;61.74
81961;BME280;71462;50.650;6.888;2023-11-21T13:18:24;99852.59;;;11.02;61.92
81961;BME280;71462;50.650;6.888;2023-11-21T13:20:53;99855.66;;;10.90;63.03
81961;BME280;71462;50.650;6.888;2023-11-21T13:23:24;99856.59;;;10.76;63.85
81961;BME280;71462;50.650;6.888;2023-11-21T13:25:53;99852.09;;;10.71;63.29
81961;BME280;71462;50.650;6.888;2023-11-21T13:28:30;99860.53;;;11.12;62.14
81961;BME280;71462;50.650;6.888;2023-11-21T13:31:01;99863.72;;;11.14;60.67
81961;BME280;71462;50.650;6.888;2023-11-21T13:33:38;99870.72;;;11.34;60.58
81961;BME280;71462;50.650;6.888;2023-11-21T13:36:08;99866.78;;;11.26;60.04
81961;BME280;71462;50.650;6.888;2023-11-21T13:38:37;99879.22;;;11.41;60.13